Time;durP1;ratioP1;P1;durP2;ratioP2;P2;SDS_P1;SDS_P2;PMS_P1;PMS_P2;Temp;Humidity;BMP_temperature;BMP_pressure;BME280_temperature;BME280_humidity;BME280_pressure;Samples;Min_cycle;Max_cycle;Signal;HPM_P1;HPM_P2
2024/02/08 00:01:26;;;;;;;;;3.00;3.00;;;;;13.45;100.00;100127.63;5043808;28;69516;-47
2024/02/08 00:03:51;;;;;;;;;4.00;4.00;;;;;13.46;100.00;100127.50;5054245;28;58857;-49
2024/02/08 00:06:17;;;;;;;;;3.00;3.00;;;;;13.47;100.00;100128.38;5045484;28;45980;-50
2024/02/08 00:08:42;;;;;;;;;3.00;3.00;;;;;13.48;100.00;100130.06;5034665;28;45505;-47
2024/02/08 00:11:07;;;;;;;;;4.67;3.67;;;;;13.50;100.00;100128.13;5037638;28;67636;-50
2024/02/08 00:13:34;;;;;;;;;2.33;2.33;;;;;13.50;100.00;100126.31;5043380;28;64154;-46
2024/02/08 00:15:59;;;;;;;;;4.00;4.00;;;;;13.51;100.00;100128.03;5050067;28;46178;-50
2024/02/08 00:18:25;;;;;;;;;3.00;3.00;;;;;13.51;100.00;100119.16;5038420;28;45394;-49
2024/02/08 00:20:50;;;;;;;;;4.33;4.33;;;;;13.52;100.00;100113.69;5047875;28;45388;-48
2024/02/08 00:23:15;;;;;;;;;2.67;2.67;;;;;13.53;100.00;100106.53;5048951;28;45518;-47
2024/02/08 00:25:41;;;;;;;;;2.33;2.33;;;;;13.54;100.00;100108.25;5047422;28;46264;-47
2024/02/08 00:28:11;;;;;;;;;3.67;3.67;;;;;13.55;100.00;100105.44;5051864;28;45914;-47
2024/02/08 00:30:40;;;;;;;;;3.67;3.67;;;;;13.56;100.00;100106.31;5045458;28;45404;-47
2024/02/08 00:33:08;;;;;;;;;3.00;3.00;;;;;13.56;100.00;100095.63;5045562;28;45554;-46
2024/02/08 00:35:33;;;;;;;;;2.00;2.00;;;;;13.58;100.00;100101.69;5044432;28;45451;-48
2024/02/08 00:38:00;;;;;;;;;3.00;3.00;;;;;13.59;100.00;100095.41;5042926;28;45471;-46
2024/02/08 00:40:25;;;;;;;;;2.00;2.00;;;;;13.61;100.00;100089.94;5040956;28;45659;-47
2024/02/08 00:42:51;;;;;;;;;3.00;3.00;;;;;13.64;100.00;100098.59;5043611;28;45498;-46
2024/02/08 00:45:21;;;;;;;;;2.00;2.00;;;;;13.64;100.00;100097.75;5050766;28;72713;-47
2024/02/08 00:47:50;;;;;;;;;3.00;3.00;;;;;13.64;100.00;100100.41;5049779;28;45522;-47
2024/02/08 00:50:15;;;;;;;;;4.00;2.33;;;;;13.63;100.00;100086.19;5050691;28;45229;-47
2024/02/08 00:52:41;;;;;;;;;1.00;1.00;;;;;13.64;100.00;100087.06;5044127;28;45325;-46
2024/02/08 00:55:07;;;;;;;;;1.67;1.67;;;;;13.64;100.00;100076.38;5044831;28;47016;-46
2024/02/08 00:57:33;;;;;;;;;2.00;2.00;;;;;13.65;100.00;100086.94;5037244;28;46261;-47
2024/02/08 00:59:59;;;;;;;;;4.00;3.00;;;;;13.64;100.00;100082.56;5030548;28;64436;-47
2024/02/08 01:02:26;;;;;;;;;1.00;1.00;;;;;13.63;100.00;100070.16;5042466;28;45593;-49
2024/02/08 01:04:52;;;;;;;;;1.33;1.33;;;;;13.63;100.00;100078.16;5044843;28;46992;-46
2024/02/08 01:07:17;;;;;;;;;3.00;2.00;;;;;13.64;100.00;100074.53;5051134;28;45453;-49
2024/02/08 01:09:42;;;;;;;;;1.00;1.00;;;;;13.64;100.00;100071.88;5045080;28;45888;-46
2024/02/08 01:12:09;;;;;;;;;1.00;1.00;;;;;13.66;100.00;100074.41;5043289;28;69138;-49
2024/02/08 01:14:35;;;;;;;;;2.00;1.00;;;;;13.64;100.00;100065.69;5050118;28;46517;-48
2024/02/08 01:17:00;;;;;;;;;0.00;0.00;;;;;13.63;100.00;100066.63;5035117;28;45402;-47
2024/02/08 01:19:26;;;;;;;;;1.00;1.00;;;;;13.61;100.00;100074.78;5047341;28;45376;-47
2024/02/08 01:21:52;;;;;;;;;3.00;1.00;;;;;13.60;100.00;100069.50;5050297;28;67661;-46
2024/02/08 01:24:18;;;;;;;;;1.00;1.00;;;;;13.60;100.00;100073.06;5012581;28;47188;-50
2024/02/08 01:26:47;;;;;;;;;0.00;0.00;;;;;13.61;100.00;100061.41;5047352;28;45320;-49
2024/02/08 01:29:13;;;;;;;;;1.00;1.00;;;;;13.59;100.00;100063.34;5042722;28;45365;-48
2024/02/08 01:31:38;;;;;;;;;1.00;1.00;;;;;13.61;100.00;100061.41;5046224;28;45371;-49
2024/02/08 01:34:07;;;;;;;;;1.00;1.00;;;;;13.60;100.00;100057.03;5049004;28;45384;-49
2024/02/08 01:36:35;;;;;;;;;0.67;0.67;;;;;13.59;100.00;100055.31;5019647;28;45376;-50
2024/02/08 01:39:02;;;;;;;;;1.00;1.00;;;;;13.57;100.00;100054.56;5042313;28;45395;-46
2024/02/08 01:41:27;;;;;;;;;0.67;0.67;;;;;13.55;100.00;100051.19;5048182;28;45369;-50
2024/02/08 01:43:53;;;;;;;;;3.00;2.00;;;;;13.55;100.00;100044.00;5051379;28;45945;-47
2024/02/08 01:46:19;;;;;;;;;2.00;1.00;;;;;13.58;100.00;100050.94;5028647;28;45499;-47
2024/02/08 01:48:44;;;;;;;;;0.33;0.33;;;;;13.59;100.00;100047.31;5031823;28;69200;-46
2024/02/08 01:51:12;;;;;;;;;2.00;1.00;;;;;13.63;100.00;100040.75;5051989;28;61796;-47
2024/02/08 01:53:39;;;;;;;;;1.00;1.00;;;;;13.64;100.00;100039.78;5027513;28;46917;-49
2024/02/08 01:56:05;;;;;;;;;1.00;1.00;;;;;13.65;100.00;100033.50;5030858;28;45543;-46
2024/02/08 01:58:31;;;;;;;;;1.00;1.00;;;;;13.67;100.00;100036.03;5048897;28;45483;-49
2024/02/08 02:00:57;;;;;;;;;1.00;1.00;;;;;13.68;100.00;100027.06;5037778;28;62907;-45
2024/02/08 02:03:26;;;;;;;;;1.00;1.00;;;;;13.67;100.00;100025.34;5043892;28;46287;-47
2024/02/08 02:05:51;;;;;;;;;1.00;1.00;;;;;13.66;100.00;100020.97;5051285;28;45352;-50
2024/02/08 02:08:22;;;;;;;;;0.67;0.67;;;;;13.65;100.00;100029.94;5038883;28;45886;-46
2024/02/08 02:10:53;;;;;;;;;0.00;0.00;;;;;13.61;100.00;100017.78;5045270;28;45391;-47
2024/02/08 02:13:19;;;;;;;;;0.00;0.00;;;;;13.62;100.00;100022.16;5044982;28;45441;-45
2024/02/08 02:15:44;;;;;;;;;0.00;0.00;;;;;13.59;100.00;100017.91;5031530;28;45808;-47
2024/02/08 02:18:12;;;;;;;;;1.00;1.00;;;;;13.59;100.00;100007.22;5029581;28;45367;-48
2024/02/08 02:20:37;;;;;;;;;1.00;1.00;;;;;13.59;100.00;100004.56;5055384;28;45473;-50
2024/02/08 02:23:03;;;;;;;;;0.00;0.00;;;;;13.58;100.00;100002.84;5043275;28;46125;-47
2024/02/08 02:25:32;;;;;;;;;0.00;0.00;;;;;13.58;100.00;100000.16;5050687;28;45408;-50
2024/02/08 02:28:06;;;;;;;;;0.00;0.00;;;;;13.59;100.00;99999.22;5051552;28;46365;-50
2024/02/08 02:30:34;;;;;;;;;0.00;0.00;;;;;13.60;100.00;99994.69;5028924;28;45352;-47
2024/02/08 02:33:03;;;;;;;;;1.00;1.00;;;;;13.64;100.00;99998.88;5031090;28;46088;-48
2024/02/08 02:35:29;;;;;;;;;1.00;1.00;;;;;13.64;100.00;99996.19;5048362;28;45418;-48
2024/02/08 02:37:58;;;;;;;;;2.00;1.00;;;;;13.64;100.00;99989.03;5055945;28;45360;-48
2024/02/08 02:40:24;;;;;;;;;1.00;1.00;;;;;13.65;100.00;99981.84;5033673;28;45407;-46
2024/02/08 02:42:54;;;;;;;;;1.00;1.00;;;;;13.66;100.00;99983.56;5035606;28;59379;-48
2024/02/08 02:45:23;;;;;;;;;3.00;1.33;;;;;13.65;100.00;99966.69;5053864;28;45362;-50
2024/02/08 02:47:53;;;;;;;;;0.00;0.00;;;;;13.67;100.00;99961.22;5048121;28;45518;-47
2024/02/08 02:50:20;;;;;;;;;1.00;0.00;;;;;13.68;100.00;99966.44;5044058;28;46524;-51
2024/02/08 02:52:46;;;;;;;;;1.00;1.00;;;;;13.71;100.00;99968.03;5044539;28;45371;-48
2024/02/08 02:55:12;;;;;;;;;0.00;0.00;;;;;13.72;100.00;99962.56;5047988;28;45288;-51
2024/02/08 02:57:38;;;;;;;;;0.33;0.33;;;;;13.72;100.00;99959.88;5047068;28;45693;-49
2024/02/08 03:00:15;;;;;;;;;2.00;0.00;;;;;13.76;100.00;99951.66;5041628;28;45524;-49
2024/02/08 03:02:40;;;;;;;;;1.00;1.00;;;;;13.75;100.00;99955.28;5047752;28;46858;-50
2024/02/08 03:05:06;;;;;;;;;0.67;0.67;;;;;13.72;100.00;99951.88;5048814;28;45375;-50
2024/02/08 03:07:32;;;;;;;;;1.00;1.00;;;;;13.71;100.00;99947.53;5054620;28;45447;-48
2024/02/08 03:09:57;;;;;;;;;0.33;0.33;;;;;13.69;100.00;99944.09;5026755;28;45413;-47
2024/02/08 03:12:23;;;;;;;;;0.67;0.67;;;;;13.68;100.00;99941.56;5043372;28;45428;-47
2024/02/08 03:14:59;;;;;;;;;2.00;1.00;;;;;13.66;100.00;99933.66;5045473;28;45463;-48
2024/02/08 03:17:24;;;;;;;;;0.67;0.67;;;;;13.66;100.00;99924.78;5053078;28;45501;-46
2024/02/08 03:19:49;;;;;;;;;0.00;0.00;;;;;13.64;100.00;99935.59;5045812;28;47181;-48
2024/02/08 03:22:18;;;;;;;;;0.00;0.00;;;;;13.64;100.00;99935.59;5044482;28;74696;-47
2024/02/08 03:24:44;;;;;;;;;0.00;0.00;;;;;13.65;100.00;99933.75;5045613;28;45394;-50
2024/02/08 03:27:13;;;;;;;;;1.00;1.00;;;;;13.65;100.00;99921.25;5050467;28;45648;-47
2024/02/08 03:29:41;;;;;;;;;2.00;0.00;;;;;13.64;100.00;99922.22;5040896;28;45454;-51
2024/02/08 03:32:08;;;;;;;;;0.00;0.00;;;;;13.64;100.00;99916.88;5051837;28;46301;-48
2024/02/08 03:34:35;;;;;;;;;0.00;0.00;;;;;13.65;100.00;99915.91;5047360;28;45445;-50
2024/02/08 03:37:02;;;;;;;;;1.00;1.00;;;;;13.65;100.00;99917.72;5045041;28;45422;-47
2024/02/08 03:39:28;;;;;;;;;1.00;1.00;;;;;13.60;100.00;99910.06;5053868;28;45376;-49
2024/02/08 03:42:04;;;;;;;;;0.00;0.00;;;;;13.59;100.00;99910.19;5045902;28;56941;-46
2024/02/08 03:44:30;;;;;;;;;0.00;0.00;;;;;13.59;100.00;99907.53;5046740;28;45736;-47
2024/02/08 03:46:56;;;;;;;;;0.00;0.00;;;;;13.56;100.00;99897.94;5040101;28;45322;-46
2024/02/08 03:49:21;;;;;;;;;0.67;0.00;;;;;13.55;100.00;99902.41;5043950;28;45450;-50
2024/02/08 03:51:49;;;;;;;;;1.00;1.00;;;;;13.57;100.00;99899.59;5043459;28;47641;-47
2024/02/08 03:54:17;;;;;;;;;0.00;0.00;;;;;13.57;100.00;99897.81;5033858;28;45679;-47
2024/02/08 03:56:52;;;;;;;;;0.00;0.00;;;;;13.58;100.00;99893.28;5043391;28;45420;-48
2024/02/08 03:59:27;;;;;;;;;0.00;0.00;;;;;13.60;100.00;99888.69;5044991;28;45501;-48
2024/02/08 04:02:05;;;;;;;;;0.00;0.00;;;;;13.59;100.00;99888.81;5040621;28;45332;-47
2024/02/08 04:04:53;;;;;;;;;0.00;0.00;;;;;13.60;100.00;99885.16;5053937;28;45402;-48
2024/02/08 04:07:20;;;;;;;;;0.00;0.00;;;;;13.60;100.00;99875.34;5040325;28;45447;-46
2024/02/08 04:09:55;;;;;;;;;0.67;0.00;;;;;13.63;100.00;99876.94;5023263;28;45491;-48
2024/02/08 04:53:44;;;;;;;;;0.00;0.00;;;;;13.54;100.00;99835.72;5054210;28;45397;-49
2024/02/08 04:56:10;;;;;;;;;0.00;0.00;;;;;13.57;100.00;99835.47;5050342;28;46407;-46
2024/02/08 04:58:39;;;;;;;;;0.00;0.00;;;;;13.57;100.00;99835.47;5049821;28;45344;-49
2024/02/08 05:01:08;;;;;;;;;0.00;0.00;;;;;13.55;100.00;99830.25;5038659;28;45343;-48
2024/02/08 05:03:37;;;;;;;;;0.00;0.00;;;;;13.55;100.00;99824.91;5025856;28;45432;-46
2024/02/08 05:06:10;;;;;;;;;0.00;0.00;;;;;13.56;100.00;99826.63;5042791;28;47190;-46
2024/02/08 05:08:36;;;;;;;;;0.00;0.00;;;;;13.57;100.00;99823.00;5038176;28;45464;-49
2024/02/08 05:11:03;;;;;;;;;0.00;0.00;;;;;13.57;100.00;99822.13;5042485;28;45493;-50
2024/02/08 05:13:29;;;;;;;;;0.00;0.00;;;;;13.57;100.00;99822.13;5042268;28;45532;-47
2024/02/08 05:15:55;;;;;;;;;0.00;0.00;;;;;13.59;100.00;99817.53;5042608;28;47079;-46
2024/02/08 05:18:22;;;;;;;;;0.00;0.00;;;;;13.59;100.00;99819.34;5040039;28;45276;-46
2024/02/08 05:20:48;;;;;;;;;0.00;0.00;;;;;13.59;100.00;99820.19;5043218;28;45355;-48
2024/02/08 05:23:13;;;;;;;;;0.00;0.00;;;;;13.60;100.00;99821.91;5042179;28;45324;-48
2024/02/08 05:25:40;;;;;;;;;0.00;0.00;;;;;13.62;100.00;99821.78;5046517;28;45372;-47
2024/02/08 05:28:06;;;;;;;;;0.00;0.00;;;;;13.63;100.00;99823.47;5038615;28;45435;-46
2024/02/08 05:30:32;;;;;;;;;0.00;0.00;;;;;13.64;100.00;99818.00;5045255;28;45508;-47
2024/02/08 05:32:59;;;;;;;;;0.00;0.00;;;;;13.65;100.00;99819.72;5036958;28;45419;-46
2024/02/08 05:35:26;;;;;;;;;0.00;0.00;;;;;13.66;100.00;99821.44;5041939;28;46058;-49
2024/02/08 05:37:53;;;;;;;;;0.00;0.00;;;;;13.67;100.00;99814.25;5038645;28;45411;-47
2024/02/08 05:40:20;;;;;;;;;0.00;0.00;;;;;13.67;100.00;99811.59;5036089;28;45439;-50
2024/02/08 05:42:47;;;;;;;;;0.00;0.00;;;;;13.66;100.00;99813.41;5030241;28;45495;-47
2024/02/08 05:45:19;;;;;;;;;0.00;0.00;;;;;13.67;100.00;99820.44;5052809;28;46089;-47
2024/02/08 05:47:48;;;;;;;;;0.00;0.00;;;;;13.66;100.00;99816.09;5043726;28;45650;-46
2024/02/08 05:50:21;;;;;;;;;0.00;0.00;;;;;13.66;100.00;99809.88;5030022;28;45502;-46
2024/02/08 05:52:48;;;;;;;;;0.00;0.00;;;;;13.64;100.00;99811.84;5046114;28;45542;-47
2024/02/08 05:55:13;;;;;;;;;0.00;0.00;;;;;13.65;100.00;99813.50;5045414;28;46344;-46
2024/02/08 05:57:44;;;;;;;;;0.00;0.00;;;;;13.63;100.00;99813.63;5046730;28;73064;-51
2024/02/08 06:00:14;;;;;;;;;0.00;0.00;;;;;13.64;100.00;99815.34;5045560;28;45354;-48
2024/02/08 06:02:40;;;;;;;;;0.00;0.00;;;;;13.62;100.00;99811.94;5039875;28;46326;-49
2024/02/08 06:05:09;;;;;;;;;4.00;0.00;;;;;13.62;100.00;99809.25;5047755;28;46335;-47
2024/02/08 06:07:36;;;;;;;;;1.67;0.67;;;;;13.63;100.00;99815.47;5042960;28;46544;-48
2024/02/08 06:10:13;;;;;;;;;0.00;0.00;;;;;13.64;100.00;99812.66;5054793;28;45393;-46
2024/02/08 06:12:46;;;;;;;;;0.00;0.00;;;;;13.63;100.00;99824.31;5025735;28;45473;-49
2024/02/08 06:15:32;;;;;;;;;0.00;0.00;;;;;13.63;100.00;99818.97;5043967;28;45877;-50
2024/02/08 06:18:03;;;;;;;;;0.00;0.00;;;;;13.61;100.00;99801.38;5049648;28;45501;-46
2024/02/08 06:20:43;;;;;;;;;0.00;0.00;;;;;13.57;100.00;99814.09;5044743;28;45542;-48
2024/02/08 06:23:26;;;;;;;;;0.00;0.00;;;;;13.54;100.00;99807.19;5038949;28;45401;-46
2024/02/08 06:28:46;;;;;;;;;0.00;0.00;;;;;13.45;100.00;99799.88;5042586;28;45359;-47
2024/02/08 06:31:15;;;;;;;;;1.00;1.00;;;;;13.41;100.00;99803.78;5050485;28;45509;-48
2024/02/08 06:34:17;;;;;;;;;2.67;1.33;;;;;13.39;100.00;99805.72;5042464;28;45409;-47
2024/02/08 06:36:30;;;;;;;;;1.67;0.00;;;;;13.36;100.00;99793.47;5044529;28;45472;-48
2024/02/08 06:38:56;;;;;;;;;1.00;1.00;;;;;13.33;100.00;99801.66;5048464;28;45766;-46
2024/02/08 06:41:44;;;;;;;;;2.00;1.00;;;;;13.30;100.00;99803.75;5042999;28;45404;-46
2024/02/08 06:47:17;;;;;;;;;3.00;3.00;;;;;13.22;100.00;99799.84;5042136;28;45772;-50
2024/02/08 07:39:08;;;;;;;;;10.67;6.00;;;;;13.20;96.14;99788.41;5049981;28;45773;-45
2024/02/08 07:41:40;;;;;;;;;14.00;8.00;;;;;13.19;96.48;99778.72;5042434;28;45368;-46
2024/02/08 07:44:09;;;;;;;;;11.67;7.67;;;;;13.22;95.93;99785.66;5049218;28;45347;-45
2024/02/08 07:46:34;;;;;;;;;14.33;9.33;;;;;13.23;95.66;99785.53;5046699;28;45388;-44
2024/02/08 07:49:04;;;;;;;;;11.00;8.00;;;;;13.26;96.02;99779.09;5043182;28;45394;-45
2024/02/08 07:51:33;;;;;;;;;16.00;11.33;;;;;13.32;95.50;99772.41;5046966;28;45556;-44
2024/02/08 07:53:59;;;;;;;;;10.00;8.33;;;;;13.36;95.74;99768.53;5050270;28;45686;-45
2024/02/08 07:58:51;;;;;;;;;13.33;8.00;;;;;13.49;95.41;99763.09;5043757;28;45567;-47
2024/02/08 08:01:20;;;;;;;;;9.67;8.33;;;;;13.51;94.71;99766.53;5045456;28;48826;-46
2024/02/08 08:03:46;;;;;;;;;16.67;8.67;;;;;13.54;94.46;99769.78;5041395;28;45431;-46
2024/02/08 08:06:15;;;;;;;;;13.00;9.67;;;;;13.56;94.65;99764.34;5054182;28;45418;-44
2024/02/08 08:08:43;;;;;;;;;13.67;7.00;;;;;13.59;94.47;99764.09;5049925;28;45368;-46
2024/02/08 08:11:15;;;;;;;;;9.33;8.67;;;;;13.62;93.94;99769.19;5053257;28;46343;-45
2024/02/08 08:14:06;;;;;;;;;14.00;8.33;;;;;13.63;93.90;99762.03;5044727;28;45454;-47
2024/02/08 08:19:08;;;;;;;;;10.67;7.00;;;;;13.64;93.47;99759.22;5047089;28;45409;-47
2024/02/08 08:24:27;;;;;;;;;25.00;8.67;;;;;13.66;92.96;99756.44;5050064;28;45407;-46
2024/02/08 08:27:25;;;;;;;;;15.67;8.67;;;;;13.67;92.75;99756.31;5052519;28;45548;-46
2024/02/08 08:30:06;;;;;;;;;8.00;6.33;;;;;13.69;92.79;99756.22;5052433;28;45506;-48
2024/02/08 08:37:44;;;;;;;;;13.67;9.33;;;;;13.77;92.73;99750.25;5049873;28;45589;-48
2024/02/08 08:40:37;;;;;;;;;11.00;8.00;;;;;13.80;92.53;99758.00;5047038;28;45418;-46
2024/02/08 08:43:10;;;;;;;;;17.33;7.33;;;;;13.81;91.97;99751.69;5051827;28;46292;-47
2024/02/08 08:45:36;;;;;;;;;14.00;11.00;;;;;13.82;91.69;99751.56;5050548;28;45285;-49
2024/02/08 08:48:01;;;;;;;;;9.00;7.00;;;;;13.80;91.63;99742.81;5030119;28;45608;-47
2024/02/08 08:50:31;;;;;;;;;9.00;7.33;;;;;13.78;91.95;99757.28;5042513;28;45457;-45
2024/02/08 08:53:07;;;;;;;;;15.33;12.33;;;;;13.73;92.09;99749.63;5045167;28;45379;-46
2024/02/08 08:55:33;;;;;;;;;19.00;8.67;;;;;13.68;93.02;99749.16;5048339;28;45297;-44
2024/02/08 08:58:01;;;;;;;;;12.33;9.00;;;;;13.64;93.29;99737.03;5053519;28;45344;-46
2024/02/08 09:00:36;;;;;;;;;14.33;11.00;;;;;13.63;94.00;99737.97;5043403;28;45676;-47
2024/02/08 09:03:04;;;;;;;;;13.00;11.00;;;;;13.61;93.54;99730.09;5049690;28;46170;-47
2024/02/08 09:05:30;;;;;;;;;9.67;7.00;;;;;13.60;93.60;99733.72;5048946;28;45516;-47
2024/02/08 09:08:21;;;;;;;;;12.00;10.00;;;;;13.59;93.22;99731.19;5051180;28;45684;-47
2024/02/08 09:10:49;;;;;;;;;15.33;10.33;;;;;13.53;93.59;99736.03;5045564;28;45464;-48
2024/02/08 09:13:18;;;;;;;;;14.33;9.00;;;;;13.54;94.27;99720.84;5029726;28;47252;-47
2024/02/08 09:19:03;;;;;;;;;12.33;8.00;;;;;13.62;94.49;99725.59;5033364;28;45411;-48
2024/02/08 09:21:25;;;;;;;;;20.33;11.00;;;;;13.64;94.04;99724.50;5052779;28;45504;-46
2024/02/08 09:23:51;;;;;;;;;13.00;8.33;;;;;13.65;93.72;99722.66;5052805;28;45454;-49
2024/02/08 09:26:24;;;;;;;;;15.33;10.00;;;;;13.66;94.07;99711.88;5039457;28;45454;-46
2024/02/08 09:28:50;;;;;;;;;12.00;9.00;;;;;13.67;93.95;99710.03;5051869;28;45368;-46
2024/02/08 09:31:18;;;;;;;;;12.67;9.00;;;;;13.63;94.23;99701.41;5048558;28;45179;-49
2024/02/08 09:34:00;;;;;;;;;13.33;11.00;;;;;13.43;96.10;99704.81;5032443;28;47335;-44
2024/02/08 09:36:26;;;;;;;;;12.00;8.00;;;;;13.28;96.63;99704.19;5050242;28;45360;-46
2024/02/08 09:38:51;;;;;;;;;9.67;7.67;;;;;13.20;97.98;99700.28;5048831;28;45469;-47
2024/02/08 09:41:23;;;;;;;;;9.33;4.67;;;;;13.13;97.88;99698.22;5035233;28;45388;-46
2024/02/08 09:43:56;;;;;;;;;8.67;6.00;;;;;13.03;98.50;99698.94;5033383;28;47009;-45
2024/02/08 09:46:57;;;;;;;;;8.00;6.00;;;;;12.99;98.80;99713.50;5051493;28;45233;-47
2024/02/08 09:49:15;;;;;;;;;18.00;9.33;;;;;12.93;100.00;99705.97;5042179;28;45496;-45
2024/02/08 09:51:40;;;;;;;;;9.00;8.00;;;;;12.90;100.00;99707.03;5038083;28;45493;-44
2024/02/08 09:54:16;;;;;;;;;19.33;10.00;;;;;12.89;100.00;99702.69;5041100;28;73333;-49
2024/02/08 09:56:50;;;;;;;;;11.67;7.67;;;;;12.89;99.51;99685.81;5046624;28;45458;-49
2024/02/08 09:59:40;;;;;;;;;13.67;7.00;;;;;12.89;99.97;99683.16;5034174;28;45421;-46
2024/02/08 10:02:20;;;;;;;;;9.67;6.00;;;;;12.91;99.97;99681.22;5047424;28;45411;-47
2024/02/08 10:04:49;;;;;;;;;10.67;8.00;;;;;12.93;99.19;99681.09;5055148;28;46216;-44
2024/02/08 10:07:19;;;;;;;;;7.67;6.33;;;;;12.94;99.13;99677.47;5036297;28;45367;-44
2024/02/08 10:09:47;;;;;;;;;9.00;7.33;;;;;12.96;99.33;99672.84;5040277;28;45384;-46
2024/02/08 10:12:20;;;;;;;;;9.67;6.67;;;;;13.01;99.02;99679.53;5051544;28;45366;-46
2024/02/08 10:14:50;;;;;;;;;14.67;7.33;;;;;13.06;98.94;99676.50;5050241;28;46203;-47
2024/02/08 10:17:24;;;;;;;;;9.67;6.33;;;;;13.11;97.91;99670.81;5056373;28;45484;-46
2024/02/08 10:22:56;;;;;;;;;13.00;10.67;;;;;13.25;96.50;99673.25;5036253;28;45780;-48
2024/02/08 10:28:10;;;;;;;;;12.00;8.67;;;;;13.50;96.22;99649.94;5049423;28;45462;-46
2024/02/08 10:30:36;;;;;;;;;12.00;8.33;;;;;13.70;96.61;99643.84;5031850;28;45804;-46
2024/02/08 10:33:05;;;;;;;;;8.33;7.00;;;;;13.90;94.26;99636.03;5052391;28;45478;-46
2024/02/08 10:35:42;;;;;;;;;15.67;9.00;;;;;14.04;92.66;99645.56;5053536;28;45417;-47
2024/02/08 10:38:32;;;;;;;;;15.00;6.33;;;;;14.20;93.16;99645.16;5054918;28;45337;-46
2024/02/08 10:40:58;;;;;;;;;12.33;9.00;;;;;14.40;89.94;99616.72;5033615;28;45329;-45
2024/02/08 10:43:25;;;;;;;;;0.00;0.00;;;;;14.53;88.74;99635.25;5035333;28;45257;-47
2024/02/08 10:46:02;;;;;;;;;10.67;7.00;;;;;14.68;87.47;99622.44;5023672;28;46358;-46
2024/02/08 10:48:30;;;;;;;;;8.00;6.33;;;;;14.89;87.64;99625.06;5055209;28;45412;-45
2024/02/08 10:51:02;;;;;;;;;8.00;7.00;;;;;15.01;84.55;99623.16;5040901;28;45390;-47
2024/02/08 10:53:43;;;;;;;;;12.33;7.67;;;;;15.03;83.86;99616.69;5049300;28;45435;-45
2024/02/08 10:56:17;;;;;;;;;8.00;6.67;;;;;15.09;84.37;99609.94;5055000;28;45246;-45
2024/02/08 10:59:09;;;;;;;;;13.33;10.00;;;;;15.09;83.31;99609.94;5051152;28;45640;-46
2024/02/08 11:02:00;;;;;;;;;9.33;9.33;;;;;15.08;83.79;99596.69;5045544;28;45516;-49
2024/02/08 11:04:30;;;;;;;;;8.33;7.00;;;;;15.12;82.98;99603.47;5052442;28;45233;-46
2024/02/08 11:09:53;;;;;;;;;15.00;9.33;;;;;15.05;81.51;99589.78;5044527;28;46325;-48
2024/02/08 11:12:21;;;;;;;;;7.00;7.00;;;;;14.99;81.60;99592.97;5048789;28;68990;-46
2024/02/08 11:15:13;;;;;;;;;11.00;7.00;;;;;15.02;82.26;99582.84;5049485;28;45431;-47
2024/02/08 11:17:39;;;;;;;;;8.33;7.67;;;;;15.13;82.01;99583.75;5036474;28;47047;-46
2024/02/08 11:20:16;;;;;;;;;10.00;5.67;;;;;15.14;80.57;99572.88;5051451;28;45234;-50
2024/02/08 11:22:42;;;;;;;;;8.33;5.33;;;;;15.18;81.29;99565.44;5023894;28;45384;-46
2024/02/08 11:25:20;;;;;;;;;10.67;8.67;;;;;15.30;80.79;99547.41;5036880;28;45481;-46
2024/02/08 11:27:47;;;;;;;;;14.33;7.67;;;;;15.31;79.40;99544.59;5053879;28;45519;-50
2024/02/08 11:30:19;;;;;;;;;11.67;6.67;;;;;15.30;79.43;99536.69;5036096;28;45406;-48
2024/02/08 11:33:01;;;;;;;;;14.00;10.67;;;;;15.30;79.60;99528.66;5051008;28;45293;-47
2024/02/08 11:35:36;;;;;;;;;8.67;8.00;;;;;15.28;77.78;99522.59;5052568;28;45560;-45
2024/02/08 11:38:15;;;;;;;;;10.00;8.67;;;;;15.17;78.65;99527.06;5051195;28;45630;-50
2024/02/08 11:40:41;;;;;;;;;12.00;8.33;;;;;15.15;78.91;99525.53;5030539;28;45498;-48
2024/02/08 11:43:19;;;;;;;;;14.67;9.00;;;;;15.09;77.64;99518.88;5054902;28;45380;-45
2024/02/08 11:45:53;;;;;;;;;12.67;9.00;;;;;15.01;77.38;99519.56;5050721;28;45337;-47
2024/02/08 11:48:29;;;;;;;;;11.67;8.00;;;;;14.97;78.11;99520.00;5025570;28;46558;-45
2024/02/08 11:50:58;;;;;;;;;11.33;7.00;;;;;15.14;78.26;99505.09;5050388;28;45438;-48
2024/02/08 11:53:31;;;;;;;;;12.67;9.67;;;;;15.34;76.91;99505.97;5044236;28;45644;-46
2024/02/08 11:56:16;;;;;;;;;12.33;9.67;;;;;15.53;75.50;99505.16;5051321;28;45606;-48
2024/02/08 11:58:46;;;;;;;;;8.33;7.00;;;;;15.55;76.05;99498.66;5048883;28;45537;-48
2024/02/08 12:01:14;;;;;;;;;8.67;6.00;;;;;15.44;100.00;99511.34;5031820;28;45539;-48
2024/02/08 12:03:43;;;;;;;;;15.00;7.00;;;;;15.44;83.09;99497.97;5046770;28;45430;-48
2024/02/08 12:06:17;;;;;;;;;14.00;11.00;;;;;15.38;80.13;99488.63;5028318;28;45299;-47
2024/02/08 12:09:02;;;;;;;;;12.67;10.67;;;;;15.33;80.31;99501.59;5049635;28;46001;-50
2024/02/08 12:11:32;;;;;;;;;14.33;9.00;;;;;15.35;78.65;99483.56;5049492;28;45400;-48
2024/02/08 12:14:00;;;;;;;;;5.00;5.00;;;;;15.31;78.40;99480.31;5023517;28;45407;-48
2024/02/08 12:16:26;;;;;;;;;12.33;9.33;;;;;15.42;78.48;99476.63;5046796;28;45578;-46
2024/02/08 12:19:05;;;;;;;;;11.33;8.33;;;;;15.49;78.33;99477.78;5034234;28;46128;-48
2024/02/08 12:21:35;;;;;;;;;11.00;10.33;;;;;15.57;77.25;99476.25;5048063;28;45542;-47
2024/02/08 12:24:01;;;;;;;;;11.00;7.33;;;;;15.53;76.36;99471.16;5050846;28;45410;-46
2024/02/08 12:26:31;;;;;;;;;11.67;6.67;;;;;15.41;75.97;99466.06;5046918;28;45317;-49
2024/02/08 12:29:00;;;;;;;;;9.67;9.00;;;;;15.32;76.65;99459.75;5051986;28;45429;-49
2024/02/08 12:31:29;;;;;;;;;9.33;8.33;;;;;15.28;75.29;99480.59;5032051;28;45428;-49
2024/02/08 12:33:56;;;;;;;;;20.00;8.00;;;;;15.23;76.71;99458.72;5049628;28;45410;-49
2024/02/08 12:36:23;;;;;;;;;10.33;6.00;;;;;15.21;76.48;99445.50;5026269;28;45270;-47
2024/02/08 12:38:50;;;;;;;;;10.00;9.33;;;;;15.21;76.81;99458.00;5030580;28;46109;-47
2024/02/08 12:41:16;;;;;;;;;10.67;6.00;;;;;15.20;77.05;99448.28;5049742;28;45477;-47
2024/02/08 12:43:46;;;;;;;;;8.67;6.33;;;;;15.29;76.22;99455.50;5057865;28;45383;-49
2024/02/08 12:46:15;;;;;;;;;13.67;6.33;;;;;15.35;75.46;99438.84;5050869;28;45432;-48
2024/02/08 12:48:40;;;;;;;;;6.67;4.00;;;;;15.45;75.57;99438.00;5051496;28;46318;-46
2024/02/08 12:51:13;;;;;;;;;14.67;6.33;;;;;15.52;75.08;99449.84;5033185;28;45434;-47
2024/02/08 12:53:39;;;;;;;;;14.33;7.33;;;;;15.57;74.92;99431.53;5028654;28;45318;-49
2024/02/08 12:56:06;;;;;;;;;11.00;6.33;;;;;15.61;74.10;99440.97;5035056;28;45612;-48
2024/02/08 12:58:31;;;;;;;;;10.67;6.00;;;;;15.64;73.38;99424.59;5048900;28;46988;-48
2024/02/08 13:00:58;;;;;;;;;5.33;4.67;;;;;15.66;73.86;99427.97;5046493;28;72842;-46
2024/02/08 13:03:26;;;;;;;;;10.33;9.33;;;;;15.70;73.40;99433.91;5046187;28;45741;-45
2024/02/08 13:05:51;;;;;;;;;9.33;8.33;;;;;15.69;73.35;99416.97;5051789;28;46357;-46
2024/02/08 13:08:21;;;;;;;;;12.00;7.33;;;;;15.74;72.90;99421.06;5048047;28;45509;-45
2024/02/08 13:10:56;;;;;;;;;6.00;6.00;;;;;15.73;72.43;99417.53;5052419;28;45447;-45
2024/02/08 13:13:25;;;;;;;;;10.33;7.00;;;;;15.67;72.95;99420.78;5038263;28;45455;-46
2024/02/08 13:16:01;;;;;;;;;11.33;6.00;;;;;15.62;72.83;99418.53;5046192;28;45455;-51
2024/02/08 13:18:29;;;;;;;;;9.67;6.33;;;;;15.52;73.08;99407.81;5031237;28;46186;-49
2024/02/08 13:20:55;;;;;;;;;9.00;8.00;;;;;15.48;73.06;99411.78;5048348;28;45408;-45
2024/02/08 13:23:20;;;;;;;;;11.33;9.33;;;;;15.45;73.27;99395.13;5036118;28;45529;-46
2024/02/08 13:25:46;;;;;;;;;5.33;4.67;;;;;15.37;73.30;99410.09;5046902;28;64458;-45
2024/02/08 13:28:11;;;;;;;;;9.67;5.67;;;;;15.28;73.30;99394.88;5047889;28;46230;-48
2024/02/08 13:30:39;;;;;;;;;6.00;6.00;;;;;15.22;73.71;99395.44;5050896;28;45760;-47
2024/02/08 13:33:05;;;;;;;;;8.00;6.67;;;;;15.15;73.56;99391.63;5049496;28;45447;-46
2024/02/08 13:35:39;;;;;;;;;12.33;8.33;;;;;15.04;74.12;99396.16;5049542;28;45578;-48
2024/02/08 13:38:05;;;;;;;;;14.67;7.00;;;;;14.87;75.19;99386.97;5048653;28;46251;-49